sensor_id;sensor_type;location;lat;lon;timestamp;temperature;humidity
28189;DHT22;15471;51.166;4.470;2023-01-15T00:01:24;8.30;99.90
28189;DHT22;15471;51.166;4.470;2023-01-15T00:03:55;8.30;99.90
28189;DHT22;15471;51.166;4.470;2023-01-15T00:06:22;8.20;99.90
28189;DHT22;15471;51.166;4.470;2023-01-15T00:08:48;8.20;99.90
28189;DHT22;15471;51.166;4.470;2023-01-15T00:11:18;8.20;99.90
28189;DHT22;15471;51.166;4.470;2023-01-15T00:13:44;8.20;99.90
28189;DHT22;15471;51.166;4.470;2023-01-15T00:16:15;8.20;99.90
28189;DHT22;15471;51.166;4.470;2023-01-15T00:18:42;8.10;99.90
28189;DHT22;15471;51.166;4.470;2023-01-15T00:21:10;8.20;99.90
28189;DHT22;15471;51.166;4.470;2023-01-15T00:23:37;8.20;99.90
28189;DHT22;15471;51.166;4.470;2023-01-15T00:26:25;8.20;99.90
28189;DHT22;15471;51.166;4.470;2023-01-15T00:29:09;8.20;99.90
28189;DHT22;15471;51.166;4.470;2023-01-15T00:31:35;8.20;99.90
28189;DHT22;15471;51.166;4.470;2023-01-15T00:34:01;8.20;99.90
28189;DHT22;15471;51.166;4.470;2023-01-15T00:36:28;8.20;99.90
28189;DHT22;15471;51.166;4.470;2023-01-15T00:38:53;8.20;99.90
28189;DHT22;15471;51.166;4.470;2023-01-15T00:41:19;8.30;99.90
28189;DHT22;15471;51.166;4.470;2023-01-15T00:43:47;8.30;99.90
28189;DHT22;15471;51.166;4.470;2023-01-15T00:46:13;8.20;99.90
28189;DHT22;15471;51.166;4.470;2023-01-15T00:48:39;8.20;99.90
28189;DHT22;15471;51.166;4.470;2023-01-15T00:51:05;8.20;99.90
28189;DHT22;15471;51.166;4.470;2023-01-15T00:53:31;8.20;99.90
28189;DHT22;15471;51.166;4.470;2023-01-15T00:55:57;8.20;99.90
28189;DHT22;15471;51.166;4.470;2023-01-15T00:58:23;8.20;99.90
28189;DHT22;15471;51.166;4.470;2023-01-15T01:00:56;8.10;99.90
28189;DHT22;15471;51.166;4.470;2023-01-15T01:03:23;8.20;99.90
28189;DHT22;15471;51.166;4.470;2023-01-15T01:05:49;8.20;99.90
28189;DHT22;15471;51.166;4.470;2023-01-15T01:08:15;8.20;99.90
28189;DHT22;15471;51.166;4.470;2023-01-15T01:10:41;8.20;99.90
28189;DHT22;15471;51.166;4.470;2023-01-15T01:13:08;8.20;99.90
28189;DHT22;15471;51.166;4.470;2023-01-15T01:15:35;8.20;99.90
28189;DHT22;15471;51.166;4.470;2023-01-15T01:18:01;8.00;99.90
28189;DHT22;15471;51.166;4.470;2023-01-15T01:20:28;8.10;99.90
28189;DHT22;15471;51.166;4.470;2023-01-15T01:22:54;8.10;99.90
28189;DHT22;15471;51.166;4.470;2023-01-15T01:25:20;8.10;99.90
28189;DHT22;15471;51.166;4.470;2023-01-15T01:27:46;8.10;99.90
28189;DHT22;15471;51.166;4.470;2023-01-15T01:30:12;8.10;99.90
28189;DHT22;15471;51.166;4.470;2023-01-15T01:32:39;8.10;99.90
28189;DHT22;15471;51.166;4.470;2023-01-15T01:35:05;8.10;99.90
28189;DHT22;15471;51.166;4.470;2023-01-15T01:37:31;8.20;99.90
28189;DHT22;15471;51.166;4.470;2023-01-15T01:39:56;8.20;99.90
28189;DHT22;15471;51.166;4.470;2023-01-15T01:42:22;8.10;99.90
28189;DHT22;15471;51.166;4.470;2023-01-15T01:47:20;8.00;99.90
28189;DHT22;15471;51.166;4.470;2023-01-15T01:49:55;8.00;99.90
28189;DHT22;15471;51.166;4.470;2023-01-15T01:52:36;8.00;99.90
28189;DHT22;15471;51.166;4.470;2023-01-15T01:55:03;8.00;99.90
28189;DHT22;15471;51.166;4.470;2023-01-15T01:57:30;8.00;99.90
28189;DHT22;15471;51.166;4.470;2023-01-15T01:59:58;8.00;99.90
28189;DHT22;15471;51.166;4.470;2023-01-15T02:02:25;8.00;99.90
28189;DHT22;15471;51.166;4.470;2023-01-15T02:04:51;7.90;99.90
28189;DHT22;15471;51.166;4.470;2023-01-15T02:07:17;7.80;99.90
28189;DHT22;15471;51.166;4.470;2023-01-15T02:09:43;7.90;99.90
28189;DHT22;15471;51.166;4.470;2023-01-15T02:12:18;7.90;99.90
28189;DHT22;15471;51.166;4.470;2023-01-15T02:15:17;7.90;99.90
28189;DHT22;15471;51.166;4.470;2023-01-15T02:18:01;8.00;99.90
28189;DHT22;15471;51.166;4.470;2023-01-15T02:20:39;7.90;99.90
28189;DHT22;15471;51.166;4.470;2023-01-15T02:23:59;7.80;99.90
28189;DHT22;15471;51.166;4.470;2023-01-15T02:32:03;7.70;99.90
28189;DHT22;15471;51.166;4.470;2023-01-15T02:34:34;7.80;99.90
28189;DHT22;15471;51.166;4.470;2023-01-15T02:37:16;7.70;99.90
28189;DHT22;15471;51.166;4.470;2023-01-15T02:39:45;7.80;99.90
28189;DHT22;15471;51.166;4.470;2023-01-15T02:42:14;7.80;99.90
28189;DHT22;15471;51.166;4.470;2023-01-15T02:44:48;7.70;99.90
28189;DHT22;15471;51.166;4.470;2023-01-15T02:47:19;7.70;99.90
28189;DHT22;15471;51.166;4.470;2023-01-15T02:49:47;7.80;99.90
28189;DHT22;15471;51.166;4.470;2023-01-15T02:52:21;7.70;99.90
28189;DHT22;15471;51.166;4.470;2023-01-15T02:55:03;7.70;99.90
28189;DHT22;15471;51.166;4.470;2023-01-15T02:57:34;7.60;99.90
28189;DHT22;15471;51.166;4.470;2023-01-15T03:00:07;7.60;99.90
28189;DHT22;15471;51.166;4.470;2023-01-15T03:02:41;7.70;99.90
28189;DHT22;15471;51.166;4.470;2023-01-15T03:05:16;7.60;99.90
28189;DHT22;15471;51.166;4.470;2023-01-15T03:07:53;7.60;99.90
28189;DHT22;15471;51.166;4.470;2023-01-15T03:10:49;7.60;99.90
28189;DHT22;15471;51.166;4.470;2023-01-15T03:13:28;7.60;99.90
28189;DHT22;15471;51.166;4.470;2023-01-15T03:21:52;7.50;99.90
28189;DHT22;15471;51.166;4.470;2023-01-15T03:26:59;7.50;99.90
28189;DHT22;15471;51.166;4.470;2023-01-15T03:29:29;7.50;99.90
28189;DHT22;15471;51.166;4.470;2023-01-15T03:31:59;7.50;99.90
28189;DHT22;15471;51.166;4.470;2023-01-15T03:34:32;7.50;99.90
28189;DHT22;15471;51.166;4.470;2023-01-15T03:36:59;7.40;99.90
28189;DHT22;15471;51.166;4.470;2023-01-15T03:39:26;7.40;99.90
28189;DHT22;15471;51.166;4.470;2023-01-15T03:42:44;7.40;99.90
28189;DHT22;15471;51.166;4.470;2023-01-15T03:45:01;7.50;99.90
28189;DHT22;15471;51.166;4.470;2023-01-15T03:47:29;7.40;99.90
28189;DHT22;15471;51.166;4.470;2023-01-15T03:52:57;7.40;99.90
28189;DHT22;15471;51.166;4.470;2023-01-15T03:55:43;7.40;99.90
28189;DHT22;15471;51.166;4.470;2023-01-15T04:01:43;7.30;99.90
28189;DHT22;15471;51.166;4.470;2023-01-15T04:04:12;7.30;99.90
28189;DHT22;15471;51.166;4.470;2023-01-15T04:06:40;7.20;99.90
28189;DHT22;15471;51.166;4.470;2023-01-15T04:09:09;7.30;99.90
28189;DHT22;15471;51.166;4.470;2023-01-15T04:11:36;7.30;99.90
28189;DHT22;15471;51.166;4.470;2023-01-15T04:14:05;7.20;99.90
28189;DHT22;15471;51.166;4.470;2023-01-15T04:16:47;7.40;99.90
28189;DHT22;15471;51.166;4.470;2023-01-15T04:19:13;7.40;99.90
28189;DHT22;15471;51.166;4.470;2023-01-15T04:22:00;7.40;99.90
28189;DHT22;15471;51.166;4.470;2023-01-15T04:24:26;7.30;99.90
28189;DHT22;15471;51.166;4.470;2023-01-15T04:26:51;7.40;99.90
28189;DHT22;15471;51.166;4.470;2023-01-15T04:29:17;7.40;99.90
28189;DHT22;15471;51.166;4.470;2023-01-15T04:31:43;7.40;99.90
28189;DHT22;15471;51.166;4.470;2023-01-15T04:34:09;7.30;99.90
28189;DHT22;15471;51.166;4.470;2023-01-15T04:36:35;7.30;99.90
28189;DHT22;15471;51.166;4.470;2023-01-15T04:39:02;7.20;99.90
28189;DHT22;15471;51.166;4.470;2023-01-15T04:41:27;7.30;99.90
28189;DHT22;15471;51.166;4.470;2023-01-15T04:44:12;7.30;99.90
28189;DHT22;15471;51.166;4.470;2023-01-15T04:46:39;7.30;99.90
28189;DHT22;15471;51.166;4.470;2023-01-15T04:49:09;7.30;99.90
28189;DHT22;15471;51.166;4.470;2023-01-15T04:51:35;7.30;99.90
28189;DHT22;15471;51.166;4.470;2023-01-15T04:54:06;7.40;99.90
28189;DHT22;15471;51.166;4.470;2023-01-15T04:56:37;7.30;99.90
28189;DHT22;15471;51.166;4.470;2023-01-15T04:59:03;7.30;99.90
28189;DHT22;15471;51.166;4.470;2023-01-15T05:01:29;7.20;99.90
28189;DHT22;15471;51.166;4.470;2023-01-15T05:03:55;7.20;99.90
28189;DHT22;15471;51.166;4.470;2023-01-15T05:06:26;7.20;99.90
28189;DHT22;15471;51.166;4.470;2023-01-15T05:08:52;7.10;99.90
28189;DHT22;15471;51.166;4.470;2023-01-15T05:11:18;7.10;99.90
28189;DHT22;15471;51.166;4.470;2023-01-15T05:13:43;7.10;99.90
28189;DHT22;15471;51.166;4.470;2023-01-15T05:16:16;7.00;99.90
28189;DHT22;15471;51.166;4.470;2023-01-15T05:18:43;7.10;99.90
28189;DHT22;15471;51.166;4.470;2023-01-15T05:21:38;7.10;99.90
28189;DHT22;15471;51.166;4.470;2023-01-15T05:24:05;7.10;99.90
28189;DHT22;15471;51.166;4.470;2023-01-15T05:26:34;7.10;99.90
28189;DHT22;15471;51.166;4.470;2023-01-15T05:29:00;7.10;99.90
28189;DHT22;15471;51.166;4.470;2023-01-15T05:31:27;7.10;99.90
28189;DHT22;15471;51.166;4.470;2023-01-15T05:33:54;7.20;99.90
28189;DHT22;15471;51.166;4.470;2023-01-15T05:36:22;7.20;99.90
28189;DHT22;15471;51.166;4.470;2023-01-15T05:38:49;7.10;99.90
28189;DHT22;15471;51.166;4.470;2023-01-15T05:41:17;7.20;99.90
28189;DHT22;15471;51.166;4.470;2023-01-15T05:44:04;7.10;99.90
28189;DHT22;15471;51.166;4.470;2023-01-15T05:46:31;7.10;99.90
28189;DHT22;15471;51.166;4.470;2023-01-15T05:49:05;7.10;99.90
28189;DHT22;15471;51.166;4.470;2023-01-15T05:51:33;7.00;99.90
28189;DHT22;15471;51.166;4.470;2023-01-15T05:54:00;7.00;99.90
28189;DHT22;15471;51.166;4.470;2023-01-15T05:56:26;7.10;99.90
28189;DHT22;15471;51.166;4.470;2023-01-15T05:58:52;7.10;99.90
28189;DHT22;15471;51.166;4.470;2023-01-15T06:01:19;7.00;99.90
28189;DHT22;15471;51.166;4.470;2023-01-15T06:03:45;7.00;99.90
28189;DHT22;15471;51.166;4.470;2023-01-15T06:06:14;6.80;99.90
28189;DHT22;15471;51.166;4.470;2023-01-15T06:08:40;6.80;99.90
28189;DHT22;15471;51.166;4.470;2023-01-15T06:11:06;6.80;99.90
28189;DHT22;15471;51.166;4.470;2023-01-15T06:13:32;6.80;99.90
28189;DHT22;15471;51.166;4.470;2023-01-15T06:15:59;6.80;99.90
28189;DHT22;15471;51.166;4.470;2023-01-15T06:18:25;6.90;99.90
28189;DHT22;15471;51.166;4.470;2023-01-15T06:20:51;6.80;99.90
28189;DHT22;15471;51.166;4.470;2023-01-15T06:23:17;6.70;99.90
28189;DHT22;15471;51.166;4.470;2023-01-15T06:25:43;6.60;99.90
28189;DHT22;15471;51.166;4.470;2023-01-15T06:28:10;6.60;99.90
28189;DHT22;15471;51.166;4.470;2023-01-15T06:30:37;6.50;99.90
28189;DHT22;15471;51.166;4.470;2023-01-15T06:33:04;6.40;99.90
28189;DHT22;15471;51.166;4.470;2023-01-15T06:35:30;6.40;99.90
28189;DHT22;15471;51.166;4.470;2023-01-15T06:37:56;6.40;99.90
28189;DHT22;15471;51.166;4.470;2023-01-15T06:40:22;6.40;99.90
28189;DHT22;15471;51.166;4.470;2023-01-15T06:42:48;6.30;99.90
28189;DHT22;15471;51.166;4.470;2023-01-15T06:45:38;6.30;99.90
28189;DHT22;15471;51.166;4.470;2023-01-15T06:48:24;6.10;99.90
28189;DHT22;15471;51.166;4.470;2023-01-15T06:50:50;6.10;99.90
28189;DHT22;15471;51.166;4.470;2023-01-15T06:53:16;6.20;99.90
28189;DHT22;15471;51.166;4.470;2023-01-15T06:55:42;6.20;99.90
28189;DHT22;15471;51.166;4.470;2023-01-15T06:58:08;6.10;99.90
28189;DHT22;15471;51.166;4.470;2023-01-15T07:00:33;6.10;99.90
28189;DHT22;15471;51.166;4.470;2023-01-15T07:03:00;6.10;99.90
28189;DHT22;15471;51.166;4.470;2023-01-15T07:05:26;6.00;99.90
28189;DHT22;15471;51.166;4.470;2023-01-15T07:07:52;6.00;99.90
28189;DHT22;15471;51.166;4.470;2023-01-15T07:10:18;6.20;99.90
28189;DHT22;15471;51.166;4.470;2023-01-15T07:12:44;6.10;99.90
28189;DHT22;15471;51.166;4.470;2023-01-15T07:15:10;6.10;99.90
28189;DHT22;15471;51.166;4.470;2023-01-15T07:17:36;6.00;99.90
28189;DHT22;15471;51.166;4.470;2023-01-15T07:20:03;5.90;99.90
28189;DHT22;15471;51.166;4.470;2023-01-15T07:22:30;5.90;99.90
28189;DHT22;15471;51.166;4.470;2023-01-15T07:24:56;5.80;99.90
28189;DHT22;15471;51.166;4.470;2023-01-15T07:27:22;5.90;99.90
28189;DHT22;15471;51.166;4.470;2023-01-15T07:29:48;5.90;99.90
28189;DHT22;15471;51.166;4.470;2023-01-15T07:32:15;5.80;99.90
28189;DHT22;15471;51.166;4.470;2023-01-15T07:34:41;5.70;99.90
28189;DHT22;15471;51.166;4.470;2023-01-15T07:37:06;5.70;99.90
28189;DHT22;15471;51.166;4.470;2023-01-15T07:39:32;5.60;99.90
28189;DHT22;15471;51.166;4.470;2023-01-15T07:41:58;5.60;99.90
28189;DHT22;15471;51.166;4.470;2023-01-15T07:44:44;5.60;99.90
28189;DHT22;15471;51.166;4.470;2023-01-15T07:47:28;5.60;99.90
28189;DHT22;15471;51.166;4.470;2023-01-15T07:50:16;5.50;99.90
28189;DHT22;15471;51.166;4.470;2023-01-15T07:52:43;5.40;99.90
28189;DHT22;15471;51.166;4.470;2023-01-15T07:55:09;5.40;99.90
28189;DHT22;15471;51.166;4.470;2023-01-15T07:57:37;5.40;99.90
28189;DHT22;15471;51.166;4.470;2023-01-15T08:00:05;5.50;99.90
28189;DHT22;15471;51.166;4.470;2023-01-15T08:02:37;5.50;99.90
28189;DHT22;15471;51.166;4.470;2023-01-15T08:05:04;5.40;99.90
28189;DHT22;15471;51.166;4.470;2023-01-15T08:07:30;5.50;99.90
28189;DHT22;15471;51.166;4.470;2023-01-15T08:09:55;5.50;99.90
28189;DHT22;15471;51.166;4.470;2023-01-15T08:12:21;5.50;99.90
28189;DHT22;15471;51.166;4.470;2023-01-15T08:15:07;5.60;99.90
28189;DHT22;15471;51.166;4.470;2023-01-15T08:17:45;5.60;99.90
28189;DHT22;15471;51.166;4.470;2023-01-15T08:20:14;5.70;99.90
28189;DHT22;15471;51.166;4.470;2023-01-15T08:22:40;5.80;99.90
28189;DHT22;15471;51.166;4.470;2023-01-15T08:25:07;5.80;99.90
28189;DHT22;15471;51.166;4.470;2023-01-15T08:27:35;5.70;99.90
28189;DHT22;15471;51.166;4.470;2023-01-15T08:30:02;5.70;99.90
28189;DHT22;15471;51.166;4.470;2023-01-15T08:32:28;5.70;99.90
28189;DHT22;15471;51.166;4.470;2023-01-15T08:34:53;5.70;99.90
28189;DHT22;15471;51.166;4.470;2023-01-15T08:37:19;5.70;99.90
28189;DHT22;15471;51.166;4.470;2023-01-15T08:39:45;5.70;99.90
28189;DHT22;15471;51.166;4.470;2023-01-15T08:42:11;5.70;99.90
28189;DHT22;15471;51.166;4.470;2023-01-15T08:44:37;5.80;99.90
28189;DHT22;15471;51.166;4.470;2023-01-15T08:47:03;5.90;99.90
28189;DHT22;15471;51.166;4.470;2023-01-15T08:49:28;5.90;99.90
28189;DHT22;15471;51.166;4.470;2023-01-15T08:51:54;5.90;99.90
28189;DHT22;15471;51.166;4.470;2023-01-15T08:54:21;5.90;99.90
28189;DHT22;15471;51.166;4.470;2023-01-15T08:56:49;6.10;99.90
28189;DHT22;15471;51.166;4.470;2023-01-15T08:59:15;6.10;99.90
28189;DHT22;15471;51.166;4.470;2023-01-15T09:01:41;6.10;99.90
28189;DHT22;15471;51.166;4.470;2023-01-15T09:04:11;6.20;99.90
28189;DHT22;15471;51.166;4.470;2023-01-15T09:06:37;6.30;99.90
28189;DHT22;15471;51.166;4.470;2023-01-15T09:11:31;6.60;99.90
28189;DHT22;15471;51.166;4.470;2023-01-15T09:13:57;6.70;99.90
28189;DHT22;15471;51.166;4.470;2023-01-15T09:16:23;6.80;99.90
28189;DHT22;15471;51.166;4.470;2023-01-15T09:18:52;6.90;99.90
28189;DHT22;15471;51.166;4.470;2023-01-15T09:21:22;7.10;99.90
28189;DHT22;15471;51.166;4.470;2023-01-15T09:23:48;7.40;99.90
28189;DHT22;15471;51.166;4.470;2023-01-15T09:28:51;7.60;99.90
28189;DHT22;15471;51.166;4.470;2023-01-15T09:31:17;7.60;99.90
28189;DHT22;15471;51.166;4.470;2023-01-15T09:33:43;7.80;99.90
28189;DHT22;15471;51.166;4.470;2023-01-15T09:36:30;7.70;99.90
28189;DHT22;15471;51.166;4.470;2023-01-15T09:38:56;7.60;99.90
28189;DHT22;15471;51.166;4.470;2023-01-15T09:41:24;7.40;99.90
28189;DHT22;15471;51.166;4.470;2023-01-15T09:44:32;7.40;99.90
28189;DHT22;15471;51.166;4.470;2023-01-15T09:47:14;7.10;99.90
28189;DHT22;15471;51.166;4.470;2023-01-15T09:52:34;7.20;99.90
28189;DHT22;15471;51.166;4.470;2023-01-15T09:57:45;7.20;99.90
28189;DHT22;15471;51.166;4.470;2023-01-15T10:00:26;7.20;99.90
28189;DHT22;15471;51.166;4.470;2023-01-15T10:05:48;7.10;99.90
28189;DHT22;15471;51.166;4.470;2023-01-15T10:10:51;7.20;99.90
28189;DHT22;15471;51.166;4.470;2023-01-15T10:13:42;7.20;99.90
28189;DHT22;15471;51.166;4.470;2023-01-15T10:16:11;7.20;99.90
28189;DHT22;15471;51.166;4.470;2023-01-15T10:18:38;7.20;99.90
28189;DHT22;15471;51.166;4.470;2023-01-15T10:21:14;7.20;99.90
28189;DHT22;15471;51.166;4.470;2023-01-15T10:26:58;7.40;99.90
28189;DHT22;15471;51.166;4.470;2023-01-15T10:29:32;7.50;99.90
28189;DHT22;15471;51.166;4.470;2023-01-15T10:32:21;7.50;99.90
28189;DHT22;15471;51.166;4.470;2023-01-15T10:43:24;7.50;99.90
28189;DHT22;15471;51.166;4.470;2023-01-15T10:45:59;7.40;99.90
28189;DHT22;15471;51.166;4.470;2023-01-15T10:48:38;7.40;99.90
28189;DHT22;15471;51.166;4.470;2023-01-15T10:52:02;7.30;99.90
28189;DHT22;15471;51.166;4.470;2023-01-15T11:00:14;7.30;99.90
28189;DHT22;15471;51.166;4.470;2023-01-15T11:02:46;7.40;99.90
28189;DHT22;15471;51.166;4.470;2023-01-15T11:05:17;7.40;99.90
28189;DHT22;15471;51.166;4.470;2023-01-15T11:07:49;7.60;99.90
28189;DHT22;15471;51.166;4.470;2023-01-15T11:10:19;7.60;99.90
28189;DHT22;15471;51.166;4.470;2023-01-15T11:12:57;7.60;99.90
28189;DHT22;15471;51.166;4.470;2023-01-15T11:15:47;7.70;99.90
28189;DHT22;15471;51.166;4.470;2023-01-15T11:18:34;7.80;99.90
28189;DHT22;15471;51.166;4.470;2023-01-15T11:21:21;7.80;99.90
28189;DHT22;15471;51.166;4.470;2023-01-15T11:23:48;7.90;99.90
28189;DHT22;15471;51.166;4.470;2023-01-15T11:26:24;7.80;99.90
28189;DHT22;15471;51.166;4.470;2023-01-15T11:28:51;7.60;99.90
28189;DHT22;15471;51.166;4.470;2023-01-15T11:31:17;7.60;99.90
28189;DHT22;15471;51.166;4.470;2023-01-15T11:34:13;7.60;99.90
28189;DHT22;15471;51.166;4.470;2023-01-15T11:36:31;7.70;99.90
28189;DHT22;15471;51.166;4.470;2023-01-15T11:38:58;8.00;99.90
28189;DHT22;15471;51.166;4.470;2023-01-15T11:41:31;8.20;99.90
28189;DHT22;15471;51.166;4.470;2023-01-15T11:44:17;8.40;99.90
28189;DHT22;15471;51.166;4.470;2023-01-15T11:47:02;8.60;99.90
28189;DHT22;15471;51.166;4.470;2023-01-15T11:49:51;8.50;99.90
28189;DHT22;15471;51.166;4.470;2023-01-15T11:52:40;8.70;99.90
28189;DHT22;15471;51.166;4.470;2023-01-15T11:55:12;8.60;99.90
28189;DHT22;15471;51.166;4.470;2023-01-15T11:57:39;8.60;99.90
28189;DHT22;15471;51.166;4.470;2023-01-15T12:00:07;8.50;99.90
28189;DHT22;15471;51.166;4.470;2023-01-15T12:02:44;8.50;99.90
28189;DHT22;15471;51.166;4.470;2023-01-15T12:05:19;8.60;99.90
28189;DHT22;15471;51.166;4.470;2023-01-15T12:07:48;8.50;99.90
28189;DHT22;15471;51.166;4.470;2023-01-15T12:10:21;8.50;99.90
28189;DHT22;15471;51.166;4.470;2023-01-15T12:18:48;8.60;99.90
28189;DHT22;15471;51.166;4.470;2023-01-15T12:21:58;8.50;99.90
28189;DHT22;15471;51.166;4.470;2023-01-15T12:30:38;8.40;99.90
28189;DHT22;15471;51.166;4.470;2023-01-15T12:32:49;8.50;99.90
28189;DHT22;15471;51.166;4.470;2023-01-15T12:35:30;8.60;99.90
28189;DHT22;15471;51.166;4.470;2023-01-15T12:40:37;8.50;99.90
28189;DHT22;15471;51.166;4.470;2023-01-15T12:43:14;8.50;99.90
28189;DHT22;15471;51.166;4.470;2023-01-15T12:45:59;8.60;99.90
28189;DHT22;15471;51.166;4.470;2023-01-15T12:51:44;8.40;99.90
28189;DHT22;15471;51.166;4.470;2023-01-15T12:54:14;8.40;99.90
28189;DHT22;15471;51.166;4.470;2023-01-15T12:57:05;8.40;99.90
28189;DHT22;15471;51.166;4.470;2023-01-15T12:59:43;8.40;99.90
28189;DHT22;15471;51.166;4.470;2023-01-15T13:10:19;8.60;99.90
28189;DHT22;15471;51.166;4.470;2023-01-15T13:12:47;8.70;99.90
28189;DHT22;15471;51.166;4.470;2023-01-15T13:15:15;8.70;99.90
28189;DHT22;15471;51.166;4.470;2023-01-15T13:18:14;8.60;99.90
28189;DHT22;15471;51.166;4.470;2023-01-15T13:20:52;8.50;99.90
28189;DHT22;15471;51.166;4.470;2023-01-15T13:32:00;8.80;99.90
28189;DHT22;15471;51.166;4.470;2023-01-15T13:37:25;8.70;99.90
28189;DHT22;15471;51.166;4.470;2023-01-15T13:39:56;8.80;99.90
28189;DHT22;15471;51.166;4.470;2023-01-15T13:42:25;8.70;99.90
28189;DHT22;15471;51.166;4.470;2023-01-15T13:47:49;8.70;99.90
28189;DHT22;15471;51.166;4.470;2023-01-15T13:50:26;8.80;99.90
28189;DHT22;15471;51.166;4.470;2023-01-15T13:53:14;8.80;99.90
28189;DHT22;15471;51.166;4.470;2023-01-15T13:55:48;8.80;99.90
28189;DHT22;15471;51.166;4.470;2023-01-15T13:58:24;8.90;99.90
28189;DHT22;15471;51.166;4.470;2023-01-15T14:04:03;8.90;99.90
28189;DHT22;15471;51.166;4.470;2023-01-15T14:09:28;8.70;99.90
28189;DHT22;15471;51.166;4.470;2023-01-15T14:25:27;8.60;99.90
28189;DHT22;15471;51.166;4.470;2023-01-15T14:39:37;8.30;99.90
28189;DHT22;15471;51.166;4.470;2023-01-15T14:42:08;8.30;99.90
28189;DHT22;15471;51.166;4.470;2023-01-15T14:44:57;8.30;99.90
28189;DHT22;15471;51.166;4.470;2023-01-15T14:47:42;8.30;99.90
28189;DHT22;15471;51.166;4.470;2023-01-15T14:55:47;8.00;99.90
28189;DHT22;15471;51.166;4.470;2023-01-15T15:00:51;7.90;99.90
28189;DHT22;15471;51.166;4.470;2023-01-15T15:03:28;8.00;99.90
28189;DHT22;15471;51.166;4.470;2023-01-15T15:05:57;7.80;99.90
28189;DHT22;15471;51.166;4.470;2023-01-15T15:08:24;7.50;99.90
28189;DHT22;15471;51.166;4.470;2023-01-15T15:10:55;7.40;99.90
28189;DHT22;15471;51.166;4.470;2023-01-15T15:13:31;7.20;99.90
28189;DHT22;15471;51.166;4.470;2023-01-15T15:16:10;7.10;99.90
28189;DHT22;15471;51.166;4.470;2023-01-15T15:18:54;7.00;99.90
28189;DHT22;15471;51.166;4.470;2023-01-15T15:21:31;6.90;99.90
28189;DHT22;15471;51.166;4.470;2023-01-15T15:26:39;6.80;99.90
28189;DHT22;15471;51.166;4.470;2023-01-15T15:31:39;6.80;99.90
28189;DHT22;15471;51.166;4.470;2023-01-15T15:34:15;6.80;99.90
28189;DHT22;15471;51.166;4.470;2023-01-15T15:36:44;6.80;99.90
28189;DHT22;15471;51.166;4.470;2023-01-15T15:39:19;7.00;99.90
28189;DHT22;15471;51.166;4.470;2023-01-15T15:41:50;7.00;99.90
28189;DHT22;15471;51.166;4.470;2023-01-15T15:44:49;6.90;99.90
28189;DHT22;15471;51.166;4.470;2023-01-15T15:47:40;6.60;99.90
28189;DHT22;15471;51.166;4.470;2023-01-15T15:52:52;6.20;99.90
28189;DHT22;15471;51.166;4.470;2023-01-15T15:55:20;6.20;99.90
28189;DHT22;15471;51.166;4.470;2023-01-15T15:57:50;6.10;99.90
28189;DHT22;15471;51.166;4.470;2023-01-15T16:00:22;6.10;99.90
28189;DHT22;15471;51.166;4.470;2023-01-15T16:02:51;6.00;99.90
28189;DHT22;15471;51.166;4.470;2023-01-15T16:07:47;5.90;99.90
28189;DHT22;15471;51.166;4.470;2023-01-15T16:10:23;5.90;99.90
28189;DHT22;15471;51.166;4.470;2023-01-15T16:12:54;5.80;99.90
28189;DHT22;15471;51.166;4.470;2023-01-15T16:15:30;5.80;99.90
28189;DHT22;15471;51.166;4.470;2023-01-15T16:17:59;5.70;99.90
28189;DHT22;15471;51.166;4.470;2023-01-15T16:20:26;5.70;99.90
28189;DHT22;15471;51.166;4.470;2023-01-15T16:22:57;5.80;99.90
28189;DHT22;15471;51.166;4.470;2023-01-15T16:25:35;5.70;99.90
28189;DHT22;15471;51.166;4.470;2023-01-15T16:28:03;5.80;99.90
28189;DHT22;15471;51.166;4.470;2023-01-15T16:30:30;5.70;99.90
28189;DHT22;15471;51.166;4.470;2023-01-15T16:33:03;5.60;99.90
28189;DHT22;15471;51.166;4.470;2023-01-15T16:35:30;5.60;99.90
28189;DHT22;15471;51.166;4.470;2023-01-15T16:37:59;5.60;99.90
28189;DHT22;15471;51.166;4.470;2023-01-15T16:40:38;5.60;99.90
28189;DHT22;15471;51.166;4.470;2023-01-15T16:50:48;5.30;99.90
28189;DHT22;15471;51.166;4.470;2023-01-15T16:53:39;5.30;99.90
28189;DHT22;15471;51.166;4.470;2023-01-15T16:59:18;5.30;99.90
28189;DHT22;15471;51.166;4.470;2023-01-15T17:04:39;5.20;99.90
28189;DHT22;15471;51.166;4.470;2023-01-15T17:09:56;5.30;99.90
28189;DHT22;15471;51.166;4.470;2023-01-15T17:12:38;5.30;99.90
28189;DHT22;15471;51.166;4.470;2023-01-15T17:17:49;5.10;99.90
28189;DHT22;15471;51.166;4.470;2023-01-15T17:20:20;5.10;99.90
28189;DHT22;15471;51.166;4.470;2023-01-15T17:22:51;5.10;99.90
28189;DHT22;15471;51.166;4.470;2023-01-15T17:25:31;5.10;99.90
28189;DHT22;15471;51.166;4.470;2023-01-15T17:27:58;5.20;99.90
28189;DHT22;15471;51.166;4.470;2023-01-15T17:30:25;5.10;99.90
28189;DHT22;15471;51.166;4.470;2023-01-15T17:33:03;5.10;99.90
28189;DHT22;15471;51.166;4.470;2023-01-15T17:35:31;5.00;99.90
28189;DHT22;15471;51.166;4.470;2023-01-15T17:37:57;5.00;99.90
28189;DHT22;15471;51.166;4.470;2023-01-15T17:40:23;5.10;99.90
28189;DHT22;15471;51.166;4.470;2023-01-15T17:42:49;5.10;99.90
28189;DHT22;15471;51.166;4.470;2023-01-15T17:45:21;5.20;99.90
28189;DHT22;15471;51.166;4.470;2023-01-15T17:47:47;5.20;99.90
28189;DHT22;15471;51.166;4.470;2023-01-15T17:50:15;5.20;99.90
28189;DHT22;15471;51.166;4.470;2023-01-15T17:52:41;5.20;99.90
28189;DHT22;15471;51.166;4.470;2023-01-15T17:55:12;5.30;99.90
28189;DHT22;15471;51.166;4.470;2023-01-15T17:57:56;5.30;99.90
28189;DHT22;15471;51.166;4.470;2023-01-15T18:00:41;5.30;99.90
28189;DHT22;15471;51.166;4.470;2023-01-15T18:03:25;5.30;99.90
28189;DHT22;15471;51.166;4.470;2023-01-15T18:06:12;5.30;99.90
28189;DHT22;15471;51.166;4.470;2023-01-15T18:08:40;5.30;99.90
28189;DHT22;15471;51.166;4.470;2023-01-15T18:11:07;5.30;99.90
28189;DHT22;15471;51.166;4.470;2023-01-15T18:13:33;5.30;99.90
28189;DHT22;15471;51.166;4.470;2023-01-15T18:15:59;5.30;99.90
28189;DHT22;15471;51.166;4.470;2023-01-15T18:18:25;5.50;99.90
28189;DHT22;15471;51.166;4.470;2023-01-15T18:20:51;5.40;99.90
28189;DHT22;15471;51.166;4.470;2023-01-15T18:23:16;5.50;99.90
28189;DHT22;15471;51.166;4.470;2023-01-15T18:25:42;5.50;99.90
28189;DHT22;15471;51.166;4.470;2023-01-15T18:28:14;5.50;99.90
28189;DHT22;15471;51.166;4.470;2023-01-15T18:30:40;5.60;99.90
28189;DHT22;15471;51.166;4.470;2023-01-15T18:33:06;5.50;99.90
28189;DHT22;15471;51.166;4.470;2023-01-15T18:35:32;5.50;99.90
28189;DHT22;15471;51.166;4.470;2023-01-15T18:37:58;5.50;99.90
28189;DHT22;15471;51.166;4.470;2023-01-15T18:40:23;5.50;99.90
28189;DHT22;15471;51.166;4.470;2023-01-15T18:42:52;5.40;99.90
28189;DHT22;15471;51.166;4.470;2023-01-15T18:45:36;5.40;99.90
28189;DHT22;15471;51.166;4.470;2023-01-15T18:48:20;5.40;99.90
28189;DHT22;15471;51.166;4.470;2023-01-15T18:50:46;5.40;99.90
28189;DHT22;15471;51.166;4.470;2023-01-15T18:53:13;5.40;99.90
28189;DHT22;15471;51.166;4.470;2023-01-15T18:55:39;5.40;99.90
28189;DHT22;15471;51.166;4.470;2023-01-15T18:58:06;5.40;99.90